sensor_id;sensor_type;location;lat;lon;timestamp;P1;durP1;ratioP1;P2;durP2;ratioP2
45382;SDS011;42455;51.660;5.824;2023-07-22T00:02:16;11.5;;;10.0;;
45382;SDS011;42455;51.660;5.824;2023-07-22T00:07:22;12.0;;;11.0;;
45382;SDS011;42455;51.660;5.824;2023-07-22T00:12:28;12.0;;;11.0;;
45382;SDS011;42455;51.660;5.824;2023-07-22T00:17:34;11.0;;;10.0;;
45382;SDS011;42455;51.660;5.824;2023-07-22T00:22:40;11.0;;;10.0;;
45382;SDS011;42455;51.660;5.824;2023-07-22T00:27:46;11.0;;;10.0;;
45382;SDS011;42455;51.660;5.824;2023-07-22T00:32:52;11.0;;;10.0;;
45382;SDS011;42455;51.660;5.824;2023-07-22T00:38:00;11.0;;;10.0;;
45382;SDS011;42455;51.660;5.824;2023-07-22T00:43:05;11.0;;;10.0;;
45382;SDS011;42455;51.660;5.824;2023-07-22T00:48:13;11.0;;;10.0;;
45382;SDS011;42455;51.660;5.824;2023-07-22T00:53:17;12.0;;;11.0;;
45382;SDS011;42455;51.660;5.824;2023-07-22T00:58:23;13.0;;;12.0;;
45382;SDS011;42455;51.660;5.824;2023-07-22T01:03:29;12.0;;;11.0;;
45382;SDS011;42455;51.660;5.824;2023-07-22T01:08:36;13.0;;;12.0;;
45382;SDS011;42455;51.660;5.824;2023-07-22T01:13:42;13.0;;;12.0;;
45382;SDS011;42455;51.660;5.824;2023-07-22T01:18:48;15.0;;;12.0;;
45382;SDS011;42455;51.660;5.824;2023-07-22T01:23:54;14.0;;;13.0;;
45382;SDS011;42455;51.660;5.824;2023-07-22T01:29:02;14.0;;;12.0;;
45382;SDS011;42455;51.660;5.824;2023-07-22T01:34:07;15.0;;;13.0;;
45382;SDS011;42455;51.660;5.824;2023-07-22T01:39:13;15.0;;;13.0;;
45382;SDS011;42455;51.660;5.824;2023-07-22T01:44:19;15.0;;;13.0;;
45382;SDS011;42455;51.660;5.824;2023-07-22T01:49:25;16.0;;;14.0;;
45382;SDS011;42455;51.660;5.824;2023-07-22T01:54:32;15.0;;;13.0;;
45382;SDS011;42455;51.660;5.824;2023-07-22T01:59:38;15.0;;;14.0;;
45382;SDS011;42455;51.660;5.824;2023-07-22T02:04:44;15.0;;;13.0;;
45382;SDS011;42455;51.660;5.824;2023-07-22T02:09:50;15.0;;;13.0;;
45382;SDS011;42455;51.660;5.824;2023-07-22T02:14:56;15.0;;;14.0;;
45382;SDS011;42455;51.660;5.824;2023-07-22T02:20:03;14.0;;;13.0;;
45382;SDS011;42455;51.660;5.824;2023-07-22T02:25:09;15.0;;;13.0;;
45382;SDS011;42455;51.660;5.824;2023-07-22T02:30:15;14.0;;;12.0;;
45382;SDS011;42455;51.660;5.824;2023-07-22T02:35:21;14.0;;;13.0;;
45382;SDS011;42455;51.660;5.824;2023-07-22T02:40:27;14.0;;;13.0;;
45382;SDS011;42455;51.660;5.824;2023-07-22T02:45:34;14.0;;;12.0;;
45382;SDS011;42455;51.660;5.824;2023-07-22T02:50:40;14.0;;;13.0;;
45382;SDS011;42455;51.660;5.824;2023-07-22T02:55:46;14.0;;;12.0;;
45382;SDS011;42455;51.660;5.824;2023-07-22T03:00:52;14.0;;;12.0;;
45382;SDS011;42455;51.660;5.824;2023-07-22T03:05:58;13.0;;;11.0;;
45382;SDS011;42455;51.660;5.824;2023-07-22T03:11:05;13.0;;;12.0;;
45382;SDS011;42455;51.660;5.824;2023-07-22T03:16:11;13.0;;;12.0;;
45382;SDS011;42455;51.660;5.824;2023-07-22T03:21:17;13.0;;;11.0;;
45382;SDS011;42455;51.660;5.824;2023-07-22T03:26:23;13.0;;;12.0;;
45382;SDS011;42455;51.660;5.824;2023-07-22T03:31:29;13.0;;;11.5;;
45382;SDS011;42455;51.660;5.824;2023-07-22T03:36:36;13.0;;;11.0;;
45382;SDS011;42455;51.660;5.824;2023-07-22T03:41:42;13.0;;;11.0;;
45382;SDS011;42455;51.660;5.824;2023-07-22T03:46:48;13.0;;;12.0;;
45382;SDS011;42455;51.660;5.824;2023-07-22T03:51:55;12.0;;;11.0;;
45382;SDS011;42455;51.660;5.824;2023-07-22T03:57:00;13.0;;;11.5;;
45382;SDS011;42455;51.660;5.824;2023-07-22T04:02:07;13.0;;;12.0;;
45382;SDS011;42455;51.660;5.824;2023-07-22T04:07:13;13.0;;;12.0;;
45382;SDS011;42455;51.660;5.824;2023-07-22T04:12:19;14.0;;;11.5;;
45382;SDS011;42455;51.660;5.824;2023-07-22T04:17:25;13.0;;;12.0;;
45382;SDS011;42455;51.660;5.824;2023-07-22T04:22:32;14.0;;;12.0;;
45382;SDS011;42455;51.660;5.824;2023-07-22T04:27:38;13.0;;;12.0;;
45382;SDS011;42455;51.660;5.824;2023-07-22T04:32:44;14.0;;;12.0;;
45382;SDS011;42455;51.660;5.824;2023-07-22T04:37:50;14.0;;;12.0;;
45382;SDS011;42455;51.660;5.824;2023-07-22T04:42:57;13.0;;;12.0;;
45382;SDS011;42455;51.660;5.824;2023-07-22T04:48:03;13.5;;;12.0;;
45382;SDS011;42455;51.660;5.824;2023-07-22T04:53:09;13.0;;;12.0;;
45382;SDS011;42455;51.660;5.824;2023-07-22T04:58:15;13.0;;;12.0;;
45382;SDS011;42455;51.660;5.824;2023-07-22T05:03:22;14.0;;;12.0;;
45382;SDS011;42455;51.660;5.824;2023-07-22T05:08:27;14.0;;;12.0;;
45382;SDS011;42455;51.660;5.824;2023-07-22T05:13:34;14.0;;;13.0;;
45382;SDS011;42455;51.660;5.824;2023-07-22T05:18:40;15.0;;;13.0;;
45382;SDS011;42455;51.660;5.824;2023-07-22T05:23:46;15.0;;;13.0;;
45382;SDS011;42455;51.660;5.824;2023-07-22T05:28:52;15.0;;;13.0;;
45382;SDS011;42455;51.660;5.824;2023-07-22T05:33:58;16.0;;;13.0;;
45382;SDS011;42455;51.660;5.824;2023-07-22T05:39:05;16.0;;;13.0;;
45382;SDS011;42455;51.660;5.824;2023-07-22T05:44:11;17.0;;;13.0;;
45382;SDS011;42455;51.660;5.824;2023-07-22T05:49:17;15.0;;;13.0;;
45382;SDS011;42455;51.660;5.824;2023-07-22T05:54:22;15.0;;;13.0;;
45382;SDS011;42455;51.660;5.824;2023-07-22T05:59:28;17.0;;;14.0;;
45382;SDS011;42455;51.660;5.824;2023-07-22T06:04:35;16.0;;;13.0;;
45382;SDS011;42455;51.660;5.824;2023-07-22T06:09:41;15.0;;;13.0;;
45382;SDS011;42455;51.660;5.824;2023-07-22T06:14:47;16.0;;;13.0;;
45382;SDS011;42455;51.660;5.824;2023-07-22T06:19:53;15.0;;;12.0;;
45382;SDS011;42455;51.660;5.824;2023-07-22T06:25:00;15.0;;;13.0;;
45382;SDS011;42455;51.660;5.824;2023-07-22T06:30:06;14.5;;;12.0;;
45382;SDS011;42455;51.660;5.824;2023-07-22T06:35:12;15.0;;;13.0;;
45382;SDS011;42455;51.660;5.824;2023-07-22T06:40:18;16.0;;;13.0;;
45382;SDS011;42455;51.660;5.824;2023-07-22T06:45:24;16.0;;;14.0;;
45382;SDS011;42455;51.660;5.824;2023-07-22T06:50:31;14.0;;;12.0;;
45382;SDS011;42455;51.660;5.824;2023-07-22T06:55:37;15.0;;;13.0;;
45382;SDS011;42455;51.660;5.824;2023-07-22T07:00:43;15.0;;;12.0;;
45382;SDS011;42455;51.660;5.824;2023-07-22T07:05:51;16.0;;;13.0;;
45382;SDS011;42455;51.660;5.824;2023-07-22T07:10:55;15.5;;;12.0;;
45382;SDS011;42455;51.660;5.824;2023-07-22T07:16:19;15.0;;;13.0;;
45382;SDS011;42455;51.660;5.824;2023-07-22T07:21:08;14.0;;;13.0;;
45382;SDS011;42455;51.660;5.824;2023-07-22T07:26:14;14.0;;;12.0;;
45382;SDS011;42455;51.660;5.824;2023-07-22T07:31:20;17.0;;;13.0;;
45382;SDS011;42455;51.660;5.824;2023-07-22T07:36:26;15.0;;;12.0;;
45382;SDS011;42455;51.660;5.824;2023-07-22T07:41:33;16.0;;;12.0;;
45382;SDS011;42455;51.660;5.824;2023-07-22T07:46:39;14.0;;;12.0;;
45382;SDS011;42455;51.660;5.824;2023-07-22T07:51:45;13.0;;;11.0;;
45382;SDS011;42455;51.660;5.824;2023-07-22T07:56:51;16.0;;;12.5;;
45382;SDS011;42455;51.660;5.824;2023-07-22T08:01:57;15.0;;;12.0;;
45382;SDS011;42455;51.660;5.824;2023-07-22T08:07:05;14.0;;;12.0;;
45382;SDS011;42455;51.660;5.824;2023-07-22T08:12:10;14.0;;;12.0;;
45382;SDS011;42455;51.660;5.824;2023-07-22T08:17:16;13.0;;;11.0;;
45382;SDS011;42455;51.660;5.824;2023-07-22T08:22:22;14.0;;;11.0;;
45382;SDS011;42455;51.660;5.824;2023-07-22T08:27:29;14.0;;;10.5;;
45382;SDS011;42455;51.660;5.824;2023-07-22T08:32:35;15.0;;;11.0;;
45382;SDS011;42455;51.660;5.824;2023-07-22T08:42:47;14.0;;;11.0;;
45382;SDS011;42455;51.660;5.824;2023-07-22T08:47:53;13.0;;;10.0;;
45382;SDS011;42455;51.660;5.824;2023-07-22T08:53:00;12.0;;;9.0;;
45382;SDS011;42455;51.660;5.824;2023-07-22T08:58:07;11.0;;;9.0;;
45382;SDS011;42455;51.660;5.824;2023-07-22T09:03:12;12.0;;;9.0;;
45382;SDS011;42455;51.660;5.824;2023-07-22T09:08:18;9.0;;;7.0;;
45382;SDS011;42455;51.660;5.824;2023-07-22T09:13:26;10.0;;;8.0;;
45382;SDS011;42455;51.660;5.824;2023-07-22T09:18:32;7.0;;;6.5;;
45382;SDS011;42455;51.660;5.824;2023-07-22T09:23:38;7.0;;;5.0;;
45382;SDS011;42455;51.660;5.824;2023-07-22T09:28:47;7.0;;;5.0;;
45382;SDS011;42455;51.660;5.824;2023-07-22T09:33:49;7.0;;;5.0;;
45382;SDS011;42455;51.660;5.824;2023-07-22T09:39:02;6.0;;;5.0;;
45382;SDS011;42455;51.660;5.824;2023-07-22T09:44:02;5.0;;;5.0;;
45382;SDS011;42455;51.660;5.824;2023-07-22T09:49:09;6.0;;;5.0;;
45382;SDS011;42455;51.660;5.824;2023-07-22T09:54:14;7.0;;;4.0;;
45382;SDS011;42455;51.660;5.824;2023-07-22T09:59:20;5.0;;;4.0;;
45382;SDS011;42455;51.660;5.824;2023-07-22T10:04:27;5.0;;;4.0;;
45382;SDS011;42455;51.660;5.824;2023-07-22T10:09:33;6.0;;;4.0;;
45382;SDS011;42455;51.660;5.824;2023-07-22T10:14:39;5.0;;;4.0;;
45382;SDS011;42455;51.660;5.824;2023-07-22T10:19:45;5.0;;;4.0;;
45382;SDS011;42455;51.660;5.824;2023-07-22T10:24:52;6.0;;;4.0;;
45382;SDS011;42455;51.660;5.824;2023-07-22T10:29:58;5.0;;;5.0;;
45382;SDS011;42455;51.660;5.824;2023-07-22T10:35:04;6.0;;;4.0;;
45382;SDS011;42455;51.660;5.824;2023-07-22T10:40:17;5.0;;;4.0;;
45382;SDS011;42455;51.660;5.824;2023-07-22T10:45:24;5.0;;;4.0;;
45382;SDS011;42455;51.660;5.824;2023-07-22T10:50:39;5.0;;;4.0;;
45382;SDS011;42455;51.660;5.824;2023-07-22T10:55:29;5.5;;;4.0;;
45382;SDS011;42455;51.660;5.824;2023-07-22T11:00:35;6.5;;;4.0;;
45382;SDS011;42455;51.660;5.824;2023-07-22T11:05:49;5.0;;;3.0;;
45382;SDS011;42455;51.660;5.824;2023-07-22T11:10:53;5.0;;;4.0;;
45382;SDS011;42455;51.660;5.824;2023-07-22T11:15:53;7.0;;;3.0;;
45382;SDS011;42455;51.660;5.824;2023-07-22T11:21:00;4.0;;;3.0;;
45382;SDS011;42455;51.660;5.824;2023-07-22T11:26:05;4.0;;;3.0;;
45382;SDS011;42455;51.660;5.824;2023-07-22T11:31:11;4.0;;;3.0;;
45382;SDS011;42455;51.660;5.824;2023-07-22T11:36:17;3.0;;;2.0;;
45382;SDS011;42455;51.660;5.824;2023-07-22T11:41:24;4.0;;;3.0;;
45382;SDS011;42455;51.660;5.824;2023-07-22T11:46:30;4.0;;;3.0;;
45382;SDS011;42455;51.660;5.824;2023-07-22T11:51:36;3.0;;;2.0;;
45382;SDS011;42455;51.660;5.824;2023-07-22T11:56:41;2.0;;;2.0;;
45382;SDS011;42455;51.660;5.824;2023-07-22T12:01:47;3.0;;;2.0;;
45382;SDS011;42455;51.660;5.824;2023-07-22T12:06:54;2.0;;;2.0;;
45382;SDS011;42455;51.660;5.824;2023-07-22T12:12:00;3.0;;;2.0;;
45382;SDS011;42455;51.660;5.824;2023-07-22T12:17:09;4.0;;;2.0;;
45382;SDS011;42455;51.660;5.824;2023-07-22T12:22:12;4.0;;;2.0;;
45382;SDS011;42455;51.660;5.824;2023-07-22T12:27:18;4.0;;;2.0;;
45382;SDS011;42455;51.660;5.824;2023-07-22T12:32:25;4.0;;;2.0;;
45382;SDS011;42455;51.660;5.824;2023-07-22T12:37:31;4.0;;;2.0;;
45382;SDS011;42455;51.660;5.824;2023-07-22T12:42:37;3.0;;;2.0;;
45382;SDS011;42455;51.660;5.824;2023-07-22T12:47:43;2.0;;;2.0;;
45382;SDS011;42455;51.660;5.824;2023-07-22T12:52:49;3.0;;;2.0;;
45382;SDS011;42455;51.660;5.824;2023-07-22T12:57:56;2.0;;;2.0;;
45382;SDS011;42455;51.660;5.824;2023-07-22T13:03:02;2.0;;;2.0;;
45382;SDS011;42455;51.660;5.824;2023-07-22T13:08:08;3.0;;;2.0;;
45382;SDS011;42455;51.660;5.824;2023-07-22T13:13:14;2.0;;;2.0;;
45382;SDS011;42455;51.660;5.824;2023-07-22T13:18:21;3.0;;;2.0;;
45382;SDS011;42455;51.660;5.824;2023-07-22T13:23:27;3.0;;;2.0;;
45382;SDS011;42455;51.660;5.824;2023-07-22T13:28:33;3.0;;;2.0;;
45382;SDS011;42455;51.660;5.824;2023-07-22T13:33:39;4.0;;;2.0;;
45382;SDS011;42455;51.660;5.824;2023-07-22T13:38:45;3.0;;;2.0;;
45382;SDS011;42455;51.660;5.824;2023-07-22T13:43:52;2.0;;;2.0;;
45382;SDS011;42455;51.660;5.824;2023-07-22T13:48:58;3.0;;;2.0;;
45382;SDS011;42455;51.660;5.824;2023-07-22T13:54:04;3.0;;;2.0;;
45382;SDS011;42455;51.660;5.824;2023-07-22T13:59:10;3.0;;;2.0;;
45382;SDS011;42455;51.660;5.824;2023-07-22T14:04:16;2.0;;;2.0;;
45382;SDS011;42455;51.660;5.824;2023-07-22T14:09:23;2.0;;;2.0;;
45382;SDS011;42455;51.660;5.824;2023-07-22T14:14:29;2.0;;;1.0;;
45382;SDS011;42455;51.660;5.824;2023-07-22T14:19:35;4.0;;;2.0;;
45382;SDS011;42455;51.660;5.824;2023-07-22T14:24:41;2.0;;;2.0;;
45382;SDS011;42455;51.660;5.824;2023-07-22T14:29:47;3.0;;;1.0;;
45382;SDS011;42455;51.660;5.824;2023-07-22T14:34:54;2.0;;;2.0;;
45382;SDS011;42455;51.660;5.824;2023-07-22T14:40:00;2.0;;;1.0;;
45382;SDS011;42455;51.660;5.824;2023-07-22T14:45:06;2.0;;;1.0;;
45382;SDS011;42455;51.660;5.824;2023-07-22T14:50:12;2.0;;;2.0;;
45382;SDS011;42455;51.660;5.824;2023-07-22T14:55:19;3.0;;;1.0;;
45382;SDS011;42455;51.660;5.824;2023-07-22T15:00:25;2.0;;;2.0;;
45382;SDS011;42455;51.660;5.824;2023-07-22T15:05:31;2.0;;;1.0;;
45382;SDS011;42455;51.660;5.824;2023-07-22T15:10:37;2.0;;;2.0;;
45382;SDS011;42455;51.660;5.824;2023-07-22T15:15:43;2.0;;;2.0;;
45382;SDS011;42455;51.660;5.824;2023-07-22T15:20:50;2.0;;;2.0;;
45382;SDS011;42455;51.660;5.824;2023-07-22T15:25:56;2.0;;;2.0;;
45382;SDS011;42455;51.660;5.824;2023-07-22T15:31:02;2.0;;;2.0;;
45382;SDS011;42455;51.660;5.824;2023-07-22T15:36:08;3.0;;;2.0;;
45382;SDS011;42455;51.660;5.824;2023-07-22T15:41:14;3.0;;;2.0;;
45382;SDS011;42455;51.660;5.824;2023-07-22T15:46:21;3.0;;;2.0;;
45382;SDS011;42455;51.660;5.824;2023-07-22T15:51:27;4.0;;;3.0;;
45382;SDS011;42455;51.660;5.824;2023-07-22T15:56:33;4.0;;;3.0;;
45382;SDS011;42455;51.660;5.824;2023-07-22T16:01:39;5.0;;;3.0;;
45382;SDS011;42455;51.660;5.824;2023-07-22T16:06:45;5.0;;;3.0;;
45382;SDS011;42455;51.660;5.824;2023-07-22T16:11:52;6.0;;;3.0;;
45382;SDS011;42455;51.660;5.824;2023-07-22T16:16:58;3.0;;;3.0;;
45382;SDS011;42455;51.660;5.824;2023-07-22T16:22:04;4.0;;;3.0;;
45382;SDS011;42455;51.660;5.824;2023-07-22T16:27:10;5.0;;;3.0;;
45382;SDS011;42455;51.660;5.824;2023-07-22T16:32:17;4.0;;;3.0;;
45382;SDS011;42455;51.660;5.824;2023-07-22T16:37:23;5.0;;;3.0;;
45382;SDS011;42455;51.660;5.824;2023-07-22T16:42:29;5.0;;;3.0;;
45382;SDS011;42455;51.660;5.824;2023-07-22T16:47:35;5.0;;;3.0;;
45382;SDS011;42455;51.660;5.824;2023-07-22T16:52:41;5.5;;;3.0;;
45382;SDS011;42455;51.660;5.824;2023-07-22T16:57:47;4.0;;;3.0;;
45382;SDS011;42455;51.660;5.824;2023-07-22T17:02:54;5.0;;;3.0;;
45382;SDS011;42455;51.660;5.824;2023-07-22T17:08:00;5.0;;;3.0;;
45382;SDS011;42455;51.660;5.824;2023-07-22T17:13:06;4.0;;;3.0;;
45382;SDS011;42455;51.660;5.824;2023-07-22T17:18:12;3.0;;;3.0;;
45382;SDS011;42455;51.660;5.824;2023-07-22T17:23:19;3.5;;;3.0;;
45382;SDS011;42455;51.660;5.824;2023-07-22T17:28:24;4.0;;;3.0;;
45382;SDS011;42455;51.660;5.824;2023-07-22T17:33:30;4.0;;;3.0;;
45382;SDS011;42455;51.660;5.824;2023-07-22T17:43:42;5.0;;;2.0;;
45382;SDS011;42455;51.660;5.824;2023-07-22T17:48:49;3.0;;;2.0;;
45382;SDS011;42455;51.660;5.824;2023-07-22T17:53:55;3.0;;;2.0;;
45382;SDS011;42455;51.660;5.824;2023-07-22T17:59:01;3.0;;;2.0;;
45382;SDS011;42455;51.660;5.824;2023-07-22T18:04:07;3.0;;;2.0;;
45382;SDS011;42455;51.660;5.824;2023-07-22T18:09:13;4.0;;;2.0;;
45382;SDS011;42455;51.660;5.824;2023-07-22T18:14:20;3.0;;;2.0;;
45382;SDS011;42455;51.660;5.824;2023-07-22T18:19:26;3.0;;;2.0;;
45382;SDS011;42455;51.660;5.824;2023-07-22T18:24:32;3.0;;;2.0;;
45382;SDS011;42455;51.660;5.824;2023-07-22T18:29:38;3.0;;;2.0;;
45382;SDS011;42455;51.660;5.824;2023-07-22T18:34:45;3.0;;;2.0;;
45382;SDS011;42455;51.660;5.824;2023-07-22T18:39:51;4.0;;;2.0;;
45382;SDS011;42455;51.660;5.824;2023-07-22T18:44:57;3.0;;;2.0;;
45382;SDS011;42455;51.660;5.824;2023-07-22T18:50:03;4.0;;;2.0;;
45382;SDS011;42455;51.660;5.824;2023-07-22T18:55:09;4.0;;;2.0;;
45382;SDS011;42455;51.660;5.824;2023-07-22T19:00:16;3.0;;;2.0;;
45382;SDS011;42455;51.660;5.824;2023-07-22T19:05:22;3.0;;;2.0;;
45382;SDS011;42455;51.660;5.824;2023-07-22T19:10:28;3.0;;;2.0;;
45382;SDS011;42455;51.660;5.824;2023-07-22T19:15:34;4.0;;;2.0;;
45382;SDS011;42455;51.660;5.824;2023-07-22T19:20:41;3.0;;;3.0;;
45382;SDS011;42455;51.660;5.824;2023-07-22T19:25:47;3.0;;;3.0;;
45382;SDS011;42455;51.660;5.824;2023-07-22T19:30:53;4.0;;;3.0;;
45382;SDS011;42455;51.660;5.824;2023-07-22T19:35:59;4.0;;;3.0;;
45382;SDS011;42455;51.660;5.824;2023-07-22T19:41:06;5.0;;;3.0;;
45382;SDS011;42455;51.660;5.824;2023-07-22T19:46:12;4.0;;;3.0;;
45382;SDS011;42455;51.660;5.824;2023-07-22T19:51:18;5.0;;;3.0;;
45382;SDS011;42455;51.660;5.824;2023-07-22T19:56:24;4.0;;;4.0;;
45382;SDS011;42455;51.660;5.824;2023-07-22T20:01:30;5.0;;;4.0;;
45382;SDS011;42455;51.660;5.824;2023-07-22T20:06:36;4.0;;;4.0;;
45382;SDS011;42455;51.660;5.824;2023-07-22T20:11:42;4.0;;;4.0;;
45382;SDS011;42455;51.660;5.824;2023-07-22T20:16:49;4.0;;;4.0;;
45382;SDS011;42455;51.660;5.824;2023-07-22T20:21:55;6.0;;;4.0;;
45382;SDS011;42455;51.660;5.824;2023-07-22T20:27:01;4.0;;;4.0;;
45382;SDS011;42455;51.660;5.824;2023-07-22T20:32:07;4.0;;;4.0;;
45382;SDS011;42455;51.660;5.824;2023-07-22T20:37:13;5.0;;;4.0;;
45382;SDS011;42455;51.660;5.824;2023-07-22T20:42:20;5.0;;;4.0;;
45382;SDS011;42455;51.660;5.824;2023-07-22T20:47:27;5.0;;;5.0;;
45382;SDS011;42455;51.660;5.824;2023-07-22T20:52:32;5.0;;;5.0;;
45382;SDS011;42455;51.660;5.824;2023-07-22T20:57:38;5.0;;;5.0;;
45382;SDS011;42455;51.660;5.824;2023-07-22T21:02:45;5.0;;;4.0;;
45382;SDS011;42455;51.660;5.824;2023-07-22T21:07:51;5.0;;;5.0;;
45382;SDS011;42455;51.660;5.824;2023-07-22T21:12:57;5.0;;;5.0;;
45382;SDS011;42455;51.660;5.824;2023-07-22T21:18:03;5.0;;;5.0;;
45382;SDS011;42455;51.660;5.824;2023-07-22T21:23:09;5.0;;;5.0;;
45382;SDS011;42455;51.660;5.824;2023-07-22T21:28:16;6.0;;;5.0;;
45382;SDS011;42455;51.660;5.824;2023-07-22T21:33:22;7.0;;;6.0;;
45382;SDS011;42455;51.660;5.824;2023-07-22T21:38:28;6.5;;;5.5;;
45382;SDS011;42455;51.660;5.824;2023-07-22T21:43:34;6.0;;;5.0;;
45382;SDS011;42455;51.660;5.824;2023-07-22T21:48:40;6.0;;;5.0;;
45382;SDS011;42455;51.660;5.824;2023-07-22T21:53:47;6.0;;;5.0;;
45382;SDS011;42455;51.660;5.824;2023-07-22T21:58:53;6.0;;;5.0;;
45382;SDS011;42455;51.660;5.824;2023-07-22T22:03:59;6.0;;;6.0;;
45382;SDS011;42455;51.660;5.824;2023-07-22T22:09:05;6.0;;;5.5;;
45382;SDS011;42455;51.660;5.824;2023-07-22T22:14:11;6.0;;;6.0;;
45382;SDS011;42455;51.660;5.824;2023-07-22T22:19:18;7.0;;;6.0;;
45382;SDS011;42455;51.660;5.824;2023-07-22T22:24:24;6.5;;;6.0;;
45382;SDS011;42455;51.660;5.824;2023-07-22T22:29:30;6.0;;;6.0;;
45382;SDS011;42455;51.660;5.824;2023-07-22T22:34:36;7.0;;;6.0;;
45382;SDS011;42455;51.660;5.824;2023-07-22T22:39:43;6.0;;;6.0;;
45382;SDS011;42455;51.660;5.824;2023-07-22T22:44:49;7.0;;;6.0;;
45382;SDS011;42455;51.660;5.824;2023-07-22T22:49:55;7.0;;;6.0;;
45382;SDS011;42455;51.660;5.824;2023-07-22T22:55:01;7.0;;;6.0;;
45382;SDS011;42455;51.660;5.824;2023-07-22T23:00:07;7.0;;;7.0;;
45382;SDS011;42455;51.660;5.824;2023-07-22T23:05:13;8.0;;;7.0;;
45382;SDS011;42455;51.660;5.824;2023-07-22T23:10:19;7.0;;;7.0;;
45382;SDS011;42455;51.660;5.824;2023-07-22T23:15:25;7.0;;;7.0;;
45382;SDS011;42455;51.660;5.824;2023-07-22T23:20:31;8.0;;;7.0;;
45382;SDS011;42455;51.660;5.824;2023-07-22T23:25:37;8.0;;;7.0;;
45382;SDS011;42455;51.660;5.824;2023-07-22T23:30:44;8.0;;;7.0;;
45382;SDS011;42455;51.660;5.824;2023-07-22T23:35:51;8.0;;;7.0;;
45382;SDS011;42455;51.660;5.824;2023-07-22T23:40:56;8.0;;;8.0;;
45382;SDS011;42455;51.660;5.824;2023-07-22T23:46:02;8.0;;;7.0;;
45382;SDS011;42455;51.660;5.824;2023-07-22T23:51:09;8.0;;;7.0;;
45382;SDS011;42455;51.660;5.824;2023-07-22T23:56:15;9.0;;;8.0;;
